Time;durP1;ratioP1;P1;durP2;ratioP2;P2;SDS_P1;SDS_P2;PMS_P1;PMS_P2;Temp;Humidity;BMP_temperature;BMP_pressure;BME280_temperature;BME280_humidity;BME280_pressure;Samples;Min_cycle;Max_cycle;Signal;HPM_P1;HPM_P2
2022/01/26 00:00:04;;;;;;;7.68;4.78;;;;;;;;;;5008277;28;20037;-36
2022/01/26 00:07:57;;;;;;;8.30;5.18;;;;;;;;;;5008321;28;20095;-35
2022/01/26 00:10:23;;;;;;;6.97;5.15;;;;;;;;;;5008304;28;20038;-34
2022/01/26 00:12:49;;;;;;;6.72;4.90;;;;;;;;;;5008120;28;20088;-33
2022/01/26 00:15:14;;;;;;;7.05;4.78;;;;;;;;;;5008235;28;20034;-35
2022/01/26 00:17:40;;;;;;;7.47;5.03;;;;;;;;;;5008070;28;20389;-36
2022/01/26 00:28:07;;;;;;;6.68;4.65;;;;;;;;;;5007763;28;20512;-37
2022/01/26 00:38:36;;;;;;;7.05;4.85;;;;;;;;;;5007923;28;20119;-36
2022/01/26 00:41:05;;;;;;;7.07;4.75;;;;;;;;;;5006509;28;20018;-34
2022/01/26 00:43:31;;;;;;;7.88;5.15;;;;;;;;;;5007726;28;20144;-35
2022/01/26 00:45:58;;;;;;;7.70;4.80;;;;;;;;;;5007813;28;20109;-36
2022/01/26 00:48:24;;;;;;;7.05;4.38;;;;;;;;;;5007717;28;20037;-39
2022/01/26 00:50:52;;;;;;;6.63;4.65;;;;;;;;;;5006221;28;20121;-35
2022/01/26 00:53:20;;;;;;;5.97;4.40;;;;;;;;;;5007549;28;20097;-37
2022/01/26 00:55:45;;;;;;;6.30;3.78;;;;;;;;;;5007519;28;20477;-34
2022/01/26 00:58:11;;;;;;;6.50;4.30;;;;;;;;;;5007305;28;20026;-38
2022/01/26 01:00:36;;;;;;;6.68;4.50;;;;;;;;;;5007316;28;20034;-37
2022/01/26 01:03:02;;;;;;;6.10;4.03;;;;;;;;;;5007325;28;20101;-36
2022/01/26 01:05:37;;;;;;;5.38;4.10;;;;;;;;;;5007163;28;20034;-36
2022/01/26 01:08:11;;;;;;;6.32;4.25;;;;;;;;;;5007100;28;20514;-36
2022/01/26 01:10:37;;;;;;;5.82;4.18;;;;;;;;;;5007201;28;20477;-36
2022/01/26 01:13:03;;;;;;;5.40;4.28;;;;;;;;;;5006791;28;20026;-36
2022/01/26 01:15:29;;;;;;;6.13;4.28;;;;;;;;;;5007415;28;20037;-34
2022/01/26 01:18:06;;;;;;;5.40;4.07;;;;;;;;;;5007147;28;20045;-38
2022/01/26 01:23:47;;;;;;;6.03;4.13;;;;;;;;;;5006935;28;20034;-32
2022/01/26 01:31:15;;;;;;;6.43;4.45;;;;;;;;;;5006628;28;20103;-37
2022/01/26 01:33:45;;;;;;;5.38;3.72;;;;;;;;;;5006387;28;20116;-36
2022/01/26 01:36:12;;;;;;;5.25;4.00;;;;;;;;;;5006732;28;20135;-36
2022/01/26 01:38:41;;;;;;;5.80;3.95;;;;;;;;;;5006803;28;20026;-34
2022/01/26 01:41:07;;;;;;;6.05;4.47;;;;;;;;;;5005114;28;20045;-37
2022/01/26 01:43:32;;;;;;;5.53;4.07;;;;;;;;;;5006861;28;20026;-36
2022/01/26 01:45:58;;;;;;;5.80;4.30;;;;;;;;;;5006384;28;20507;-37
2022/01/26 01:48:28;;;;;;;5.85;4.38;;;;;;;;;;5006433;28;20159;-35
2022/01/26 01:50:55;;;;;;;5.70;4.25;;;;;;;;;;5006607;28;20026;-37
2022/01/26 01:53:28;;;;;;;5.45;3.92;;;;;;;;;;5006009;28;20037;-35
2022/01/26 01:55:54;;;;;;;5.90;4.35;;;;;;;;;;5005363;28;20030;-33
2022/01/26 01:58:20;;;;;;;5.35;4.07;;;;;;;;;;5006099;28;20034;-34
2022/01/26 02:00:45;;;;;;;5.97;4.47;;;;;;;;;;5006322;28;20033;-33
2022/01/26 02:03:11;;;;;;;6.50;4.57;;;;;;;;;;5006047;28;20026;-38
2022/01/26 02:05:36;;;;;;;5.05;4.07;;;;;;;;;;5005988;28;20033;-36
2022/01/26 02:08:02;;;;;;;5.95;4.50;;;;;;;;;;5005588;28;20088;-38
2022/01/26 02:10:30;;;;;;;6.63;4.55;;;;;;;;;;5004861;28;20029;-33
2022/01/26 02:12:57;;;;;;;6.18;4.63;;;;;;;;;;4997440;28;20500;-39
2022/01/26 02:15:30;;;;;;;5.50;4.40;;;;;;;;;;5005102;28;20872;-37
2022/01/26 02:50:31;;;;;;;5.05;4.00;;;;;;;;;;4985625;28;20049;-39
2022/01/26 03:00:44;;;;;;;5.18;3.90;;;;;;;;;;4985904;28;20073;-31
2022/01/26 03:03:21;;;;;;;4.72;3.88;;;;;;;;;;4985426;28;20037;-36
2022/01/26 03:05:59;;;;;;;5.85;4.10;;;;;;;;;;4985494;28;20505;-34
2022/01/26 03:11:21;;;;;;;5.43;3.70;;;;;;;;;;4980357;28;20042;-34
2022/01/26 03:13:53;;;;;;;6.22;4.30;;;;;;;;;;4985446;28;20109;-36
2022/01/26 03:16:34;;;;;;;5.03;3.90;;;;;;;;;;4985715;28;20027;-36
2022/01/26 03:19:36;;;;;;;4.80;3.55;;;;;;;;;;4984513;28;20121;-38
2022/01/26 03:35:26;;;;;;;4.97;3.70;;;;;;;;;;4983901;28;20121;-37
2022/01/26 03:37:54;;;;;;;5.05;3.75;;;;;;;;;;4985511;28;20538;-39
2022/01/26 03:40:29;;;;;;;4.47;3.50;;;;;;;;;;4985843;28;20042;-36
2022/01/26 03:42:55;;;;;;;4.80;3.75;;;;;;;;;;4985234;28;20033;-36
2022/01/26 03:45:20;;;;;;;4.82;3.63;;;;;;;;;;4985102;28;20038;-36
2022/01/26 03:47:46;;;;;;;4.75;3.72;;;;;;;;;;4985357;28;20480;-35
2022/01/26 03:50:11;;;;;;;4.50;3.50;;;;;;;;;;4985025;28;20034;-34
2022/01/26 03:52:37;;;;;;;5.50;4.13;;;;;;;;;;4985326;28;20019;-34
2022/01/26 03:55:03;;;;;;;4.40;3.20;;;;;;;;;;4984847;28;20405;-38
2022/01/26 03:57:29;;;;;;;4.75;3.45;;;;;;;;;;4985143;28;20036;-37
2022/01/26 03:59:54;;;;;;;4.97;3.67;;;;;;;;;;4985301;28;20030;-32
2022/01/26 04:02:20;;;;;;;4.60;3.38;;;;;;;;;;4984823;28;20688;-36
2022/01/26 04:04:51;;;;;;;4.70;4.00;;;;;;;;;;5000416;28;20056;-36
2022/01/26 04:07:17;;;;;;;5.10;3.75;;;;;;;;;;5004243;28;20416;-36
2022/01/26 04:09:42;;;;;;;6.07;3.58;;;;;;;;;;5014410;28;20026;-37
2022/01/26 04:12:08;;;;;;;4.97;3.80;;;;;;;;;;5016100;28;20097;-38
2022/01/26 04:14:35;;;;;;;6.50;3.70;;;;;;;;;;5004508;28;20569;-34
2022/01/26 04:17:01;;;;;;;4.28;3.42;;;;;;;;;;5004456;28;20053;-33
2022/01/26 04:19:29;;;;;;;4.50;3.50;;;;;;;;;;4990539;28;20408;-37
2022/01/26 04:29:38;;;;;;;7.28;3.65;;;;;;;;;;5000471;28;20030;-33
2022/01/26 04:32:05;;;;;;;5.28;3.80;;;;;;;;;;5004738;28;20041;-37
2022/01/26 04:34:32;;;;;;;4.40;3.50;;;;;;;;;;4999993;28;20050;-36
2022/01/26 04:37:06;;;;;;;5.18;3.80;;;;;;;;;;5005606;28;20038;-34
2022/01/26 04:39:37;;;;;;;6.20;3.55;;;;;;;;;;5003266;28;20645;-38
2022/01/26 04:42:18;;;;;;;5.97;3.63;;;;;;;;;;4990392;28;20469;-33
2022/01/26 04:44:51;;;;;;;6.50;3.40;;;;;;;;;;5005120;28;20796;-38
2022/01/26 04:47:17;;;;;;;5.25;3.72;;;;;;;;;;5005299;28;20121;-32
2022/01/26 04:49:42;;;;;;;5.75;3.33;;;;;;;;;;5005032;28;20891;-38
2022/01/26 04:52:08;;;;;;;5.40;3.38;;;;;;;;;;5005425;28;20092;-36
2022/01/26 04:54:33;;;;;;;7.07;3.75;;;;;;;;;;5005073;28;20518;-33
2022/01/26 04:56:59;;;;;;;4.63;3.50;;;;;;;;;;5005265;28;20080;-32
2022/01/26 04:59:24;;;;;;;5.30;3.83;;;;;;;;;;5005028;28;20022;-34
2022/01/26 05:01:50;;;;;;;5.40;3.75;;;;;;;;;;5005490;28;20026;-38
2022/01/26 05:04:15;;;;;;;7.13;4.03;;;;;;;;;;4998825;28;20026;-40
2022/01/26 05:06:41;;;;;;;7.28;3.83;;;;;;;;;;4986353;28;20045;-36
2022/01/26 05:09:06;;;;;;;5.75;3.53;;;;;;;;;;4985396;28;20113;-38
2022/01/26 05:11:38;;;;;;;6.05;3.90;;;;;;;;;;4985104;28;20037;-37
2022/01/26 05:14:04;;;;;;;4.68;3.22;;;;;;;;;;4985771;28;20109;-38
2022/01/26 05:16:29;;;;;;;3.42;2.85;;;;;;;;;;4985217;28;20196;-39
2022/01/26 05:18:55;;;;;;;4.35;3.17;;;;;;;;;;4985265;28;20761;-31
2022/01/26 05:21:22;;;;;;;4.15;3.13;;;;;;;;;;4985488;28;20034;-38
2022/01/26 05:23:47;;;;;;;4.25;3.08;;;;;;;;;;4985259;28;20053;-35
2022/01/26 05:26:13;;;;;;;7.47;3.45;;;;;;;;;;4990025;28;20026;-39
2022/01/26 05:28:39;;;;;;;6.50;2.95;;;;;;;;;;5002628;28;20030;-37
2022/01/26 05:31:04;;;;;;;4.45;3.33;;;;;;;;;;4988941;28;20068;-39
2022/01/26 05:33:30;;;;;;;4.50;3.45;;;;;;;;;;4984727;28;20089;-34
2022/01/26 05:35:55;;;;;;;5.18;3.60;;;;;;;;;;4987132;28;20086;-37
2022/01/26 05:38:21;;;;;;;5.70;3.63;;;;;;;;;;4987360;28;20113;-37
2022/01/26 05:40:46;;;;;;;6.40;3.45;;;;;;;;;;4987152;28;20030;-36
2022/01/26 05:43:14;;;;;;;10.27;3.45;;;;;;;;;;4994405;28;20057;-32
2022/01/26 05:45:41;;;;;;;11.63;3.90;;;;;;;;;;5004141;28;20030;-36
2022/01/26 05:48:10;;;;;;;6.78;3.25;;;;;;;;;;5004548;28;20133;-33
2022/01/26 05:50:37;;;;;;;8.70;3.33;;;;;;;;;;5003606;28;20096;-35
2022/01/26 05:53:03;;;;;;;14.57;4.80;;;;;;;;;;5003928;28;20029;-34
2022/01/26 05:55:28;;;;;;;11.82;3.55;;;;;;;;;;5003892;28;20100;-34
2022/01/26 05:57:54;;;;;;;11.80;4.00;;;;;;;;;;5001796;28;20412;-30
2022/01/26 06:00:19;;;;;;;8.63;4.25;;;;;;;;;;4983927;28;20137;-38
2022/01/26 06:02:45;;;;;;;10.50;3.92;;;;;;;;;;4993434;28;20029;-33
2022/01/26 06:05:10;;;;;;;9.77;3.92;;;;;;;;;;4996080;28;20096;-38
2022/01/26 06:07:36;;;;;;;8.00;3.53;;;;;;;;;;4988829;28;20037;-36
2022/01/26 06:10:02;;;;;;;7.00;4.03;;;;;;;;;;4994922;28;20034;-34
2022/01/26 06:12:29;;;;;;;7.82;4.43;;;;;;;;;;5002038;28;20188;-39
2022/01/26 06:14:55;;;;;;;12.38;4.88;;;;;;;;;;5003454;28;20069;-37
2022/01/26 06:17:21;;;;;;;8.07;4.20;;;;;;;;;;4997557;28;20113;-34
2022/01/26 06:19:46;;;;;;;7.82;4.68;;;;;;;;;;5004024;28;20041;-34
2022/01/26 06:22:12;;;;;;;11.07;4.82;;;;;;;;;;5003832;28;20647;-37
2022/01/26 06:24:37;;;;;;;7.65;4.47;;;;;;;;;;5003878;28;20044;-35
2022/01/26 06:27:03;;;;;;;11.27;5.35;;;;;;;;;;5003459;28;20025;-39
2022/01/26 06:29:30;;;;;;;10.45;4.90;;;;;;;;;;5002772;28;20090;-38
2022/01/26 06:31:56;;;;;;;12.73;5.47;;;;;;;;;;4996816;28;20040;-36
2022/01/26 06:34:22;;;;;;;17.23;8.90;;;;;;;;;;4983348;28;20150;-34
2022/01/26 06:36:47;;;;;;;20.17;9.13;;;;;;;;;;4983721;28;20568;-39
2022/01/26 06:39:14;;;;;;;17.75;9.02;;;;;;;;;;4984952;28;20067;-36
2022/01/26 06:41:46;;;;;;;14.73;8.63;;;;;;;;;;5004363;28;20704;-36
2022/01/26 06:44:34;;;;;;;23.33;11.45;;;;;;;;;;5014958;28;20029;-38
2022/01/26 06:49:37;;;;;;;21.48;10.10;;;;;;;;;;5000779;28;20044;-39
2022/01/26 06:52:03;;;;;;;22.77;11.05;;;;;;;;;;5001780;28;20022;-34
2022/01/26 06:54:29;;;;;;;19.55;10.70;;;;;;;;;;5002359;28;20055;-35
2022/01/26 06:56:54;;;;;;;20.75;10.32;;;;;;;;;;5002509;28;20032;-32
2022/01/26 06:59:24;;;;;;;19.23;10.05;;;;;;;;;;5001590;28;20664;-31
2022/01/26 07:01:49;;;;;;;20.60;10.30;;;;;;;;;;5000932;28;20041;-35
2022/01/26 07:04:15;;;;;;;17.02;9.70;;;;;;;;;;5001591;28;20429;-34
2022/01/26 07:06:40;;;;;;;22.73;10.18;;;;;;;;;;5002350;28;20030;-35
2022/01/26 07:09:06;;;;;;;20.55;10.43;;;;;;;;;;4992009;28;20084;-33
2022/01/26 07:11:31;;;;;;;18.98;9.50;;;;;;;;;;4997790;28;20033;-37
2022/01/26 07:13:59;;;;;;;18.52;10.20;;;;;;;;;;5002788;28;20037;-33
2022/01/26 07:19:50;;;;;;;19.15;9.73;;;;;;;;;;5000529;28;20040;-33
2022/01/26 07:22:12;;;;;;;21.25;9.35;;;;;;;;;;4985798;28;20766;-37
2022/01/26 07:24:38;;;;;;;19.92;9.85;;;;;;;;;;4982784;28;20038;-39
2022/01/26 07:27:04;;;;;;;16.52;9.13;;;;;;;;;;4982566;28;20042;-32
2022/01/26 07:29:29;;;;;;;15.70;8.73;;;;;;;;;;4983036;28;20045;-34
2022/01/26 07:31:55;;;;;;;17.42;8.57;;;;;;;;;;4983308;28;20085;-35
2022/01/26 07:34:23;;;;;;;18.10;9.05;;;;;;;;;;5001573;28;20093;-35
2022/01/26 07:36:52;;;;;;;13.95;8.43;;;;;;;;;;5002031;28;20033;-34
2022/01/26 07:39:28;;;;;;;12.30;7.50;;;;;;;;;;4995768;28;20092;-32
2022/01/26 07:41:54;;;;;;;12.77;7.65;;;;;;;;;;4982005;28;20041;-31
2022/01/26 07:44:19;;;;;;;16.17;8.45;;;;;;;;;;4982478;28;20086;-38
2022/01/26 07:46:45;;;;;;;14.52;8.27;;;;;;;;;;4994280;28;20034;-36
2022/01/26 07:49:10;;;;;;;13.00;7.28;;;;;;;;;;5001454;28;20042;-33
2022/01/26 07:51:36;;;;;;;14.13;7.45;;;;;;;;;;5000483;28;20029;-33
2022/01/26 07:54:01;;;;;;;15.07;7.20;;;;;;;;;;5002226;28;20487;-37
2022/01/26 07:56:28;;;;;;;13.48;7.75;;;;;;;;;;5001889;28;20026;-32
2022/01/26 07:58:54;;;;;;;10.80;6.88;;;;;;;;;;5002107;28;20498;-37
2022/01/26 08:01:20;;;;;;;10.90;7.03;;;;;;;;;;5000846;28;20543;-36
2022/01/26 08:03:45;;;;;;;11.77;6.63;;;;;;;;;;5001813;28;20409;-34
2022/01/26 08:06:15;;;;;;;13.63;7.15;;;;;;;;;;5003486;28;20026;-35
2022/01/26 08:08:40;;;;;;;12.55;7.10;;;;;;;;;;5004178;28;20803;-38
2022/01/26 08:11:06;;;;;;;15.75;7.05;;;;;;;;;;5001879;28;20030;-39
2022/01/26 08:13:31;;;;;;;12.30;6.80;;;;;;;;;;5004200;28;20111;-39
2022/01/26 08:15:57;;;;;;;9.80;6.15;;;;;;;;;;5004452;28;20037;-36
2022/01/26 08:18:25;;;;;;;11.23;7.00;;;;;;;;;;5004006;28;20041;-35
2022/01/26 08:20:51;;;;;;;9.65;6.43;;;;;;;;;;5005409;28;20033;-39
2022/01/26 08:23:19;;;;;;;9.25;6.22;;;;;;;;;;5005269;28;20109;-40
2022/01/26 08:25:44;;;;;;;11.40;6.00;;;;;;;;;;5005275;28;20034;-39
2022/01/26 08:28:19;;;;;;;11.88;6.95;;;;;;;;;;4993077;28;20038;-40
2022/01/26 08:30:45;;;;;;;11.32;5.97;;;;;;;;;;5005841;28;20030;-37
2022/01/26 08:33:10;;;;;;;9.55;6.20;;;;;;;;;;5005422;28;20061;-38
2022/01/26 08:35:36;;;;;;;11.05;6.00;;;;;;;;;;5005612;28;20405;-36
2022/01/26 08:38:01;;;;;;;9.43;6.43;;;;;;;;;;4998773;28;20108;-39
2022/01/26 08:40:27;;;;;;;9.82;5.55;;;;;;;;;;5003975;28;20040;-36
2022/01/26 08:42:53;;;;;;;9.90;6.00;;;;;;;;;;5005355;28;20030;-39
2022/01/26 08:45:18;;;;;;;7.47;5.53;;;;;;;;;;5001714;28;20090;-37
2022/01/26 08:47:44;;;;;;;6.45;4.85;;;;;;;;;;4998893;28;20579;-39
2022/01/26 08:50:10;;;;;;;7.72;5.60;;;;;;;;;;5004678;28;20132;-37
2022/01/26 08:52:36;;;;;;;8.50;5.93;;;;;;;;;;5004934;28;20061;-36
2022/01/26 08:55:02;;;;;;;7.88;5.60;;;;;;;;;;5002645;28;20034;-39
2022/01/26 08:57:28;;;;;;;8.80;5.35;;;;;;;;;;5004220;28;20034;-36
2022/01/26 08:59:53;;;;;;;8.00;5.25;;;;;;;;;;5003836;28;20073;-35
2022/01/26 09:02:19;;;;;;;7.35;5.18;;;;;;;;;;5004227;28;20061;-34
2022/01/26 09:04:44;;;;;;;9.35;5.07;;;;;;;;;;5004464;28;20404;-35
2022/01/26 09:07:14;;;;;;;7.25;5.60;;;;;;;;;;5004123;28;20080;-37
2022/01/26 09:09:45;;;;;;;9.30;5.53;;;;;;;;;;4986356;28;20120;-38
2022/01/26 09:12:11;;;;;;;7.82;5.32;;;;;;;;;;4996330;28;20037;-35
2022/01/26 09:14:37;;;;;;;8.02;6.22;;;;;;;;;;4997331;28;20132;-36
2022/01/26 09:17:03;;;;;;;10.02;6.57;;;;;;;;;;5004196;28;20129;-37
2022/01/26 09:19:30;;;;;;;6.82;5.50;;;;;;;;;;5004153;28;20038;-38
2022/01/26 09:22:07;;;;;;;7.32;5.70;;;;;;;;;;5003192;28;20041;-36
2022/01/26 09:24:35;;;;;;;8.00;6.50;;;;;;;;;;5002679;28;20040;-37
2022/01/26 09:27:00;;;;;;;7.70;6.38;;;;;;;;;;5004086;28;20034;-36
2022/01/26 09:29:26;;;;;;;12.48;7.45;;;;;;;;;;5003848;28;20496;-33
2022/01/26 09:31:51;;;;;;;9.88;7.13;;;;;;;;;;5003975;28;20053;-39
2022/01/26 09:34:17;;;;;;;9.93;7.88;;;;;;;;;;5001719;28;20045;-35
2022/01/26 09:36:43;;;;;;;8.45;6.75;;;;;;;;;;5003992;28;20419;-34
2022/01/26 09:39:09;;;;;;;8.50;6.57;;;;;;;;;;5003459;28;20041;-34
2022/01/26 09:41:35;;;;;;;8.43;6.43;;;;;;;;;;5002911;28;20038;-36
2022/01/26 09:44:03;;;;;;;10.93;7.78;;;;;;;;;;4984777;28;20046;-36
2022/01/26 09:46:29;;;;;;;9.75;7.28;;;;;;;;;;5002227;28;20109;-40
2022/01/26 09:48:55;;;;;;;11.77;6.88;;;;;;;;;;5000933;28;20037;-34
2022/01/26 09:51:21;;;;;;;15.13;7.97;;;;;;;;;;5002654;28;20088;-37
2022/01/26 09:54:04;;;;;;;11.73;7.72;;;;;;;;;;4999940;28;20128;-39
2022/01/26 09:56:29;;;;;;;;;;;;;;;;;;5002081;28;20738;-38
2022/01/26 09:58:55;;;;;;;15.43;8.52;;;;;;;;;;5007408;28;19971;-38
2022/01/26 10:01:20;;;;;;;15.98;8.38;;;;;;;;;;5002747;28;20512;-31
2022/01/26 10:03:46;;;;;;;19.13;9.48;;;;;;;;;;5002617;28;20053;-39
2022/01/26 10:06:26;;;;;;;22.65;8.90;;;;;;;;;;4992794;28;20062;-39
2022/01/26 10:09:01;;;;;;;16.38;8.50;;;;;;;;;;4993595;28;20044;-36
2022/01/26 10:19:26;;;;;;;14.68;8.63;;;;;;;;;;5003503;28;20030;-37
2022/01/26 10:21:52;;;;;;;16.60;9.30;;;;;;;;;;5003658;28;20862;-36
2022/01/26 10:24:20;;;;;;;17.02;9.05;;;;;;;;;;5002746;28;20072;-33
2022/01/26 10:26:49;;;;;;;16.20;9.20;;;;;;;;;;5002322;28;20080;-31
2022/01/26 10:29:15;;;;;;;14.32;8.85;;;;;;;;;;5002680;28;20061;-39
2022/01/26 10:31:41;;;;;;;18.08;9.23;;;;;;;;;;5016619;28;20037;-36
2022/01/26 10:34:09;;;;;;;25.40;9.52;;;;;;;;;;5001503;28;20451;-39
2022/01/26 10:36:42;;;;;;;12.57;9.20;;;;;;;;;;5002795;28;20122;-35
2022/01/26 10:39:19;;;;;;;15.63;9.02;;;;;;;;;;5000182;28;20571;-35
2022/01/26 10:41:45;;;;;;;14.07;8.93;;;;;;;;;;5003390;28;20534;-37
2022/01/26 10:44:10;;;;;;;16.85;8.95;;;;;;;;;;5003160;28;20026;-33
2022/01/26 10:46:41;;;;;;;21.23;9.10;;;;;;;;;;5003135;28;20466;-40
2022/01/26 10:49:15;;;;;;;17.10;9.10;;;;;;;;;;5003244;28;20033;-39
2022/01/26 10:54:57;;;;;;;19.58;10.85;;;;;;;;;;5002848;28;20470;-38
2022/01/26 10:57:05;;;;;;;18.70;10.30;;;;;;;;;;5002978;28;20046;-37
2022/01/26 10:59:35;;;;;;;20.80;11.93;;;;;;;;;;5014798;28;20038;-34
2022/01/26 11:02:03;;;;;;;17.02;10.60;;;;;;;;;;5017451;28;20575;-37
2022/01/26 11:04:28;;;;;;;19.50;11.43;;;;;;;;;;5002536;28;20562;-37
2022/01/26 11:06:54;;;;;;;20.10;10.68;;;;;;;;;;5002946;28;20025;-36
2022/01/26 11:09:22;;;;;;;15.95;10.23;;;;;;;;;;5002052;28;20030;-34
2022/01/26 11:11:59;;;;;;;19.05;10.32;;;;;;;;;;5021271;28;20022;-36
2022/01/26 11:14:25;;;;;;;24.13;12.40;;;;;;;;;;5006676;28;20143;-37
2022/01/26 11:17:00;;;;;;;22.55;11.80;;;;;;;;;;5002353;28;20034;-36
2022/01/26 11:19:25;;;;;;;18.40;11.23;;;;;;;;;;5002394;28;20026;-35
2022/01/26 11:21:51;;;;;;;18.63;10.25;;;;;;;;;;4994607;28;20021;-30
2022/01/26 11:24:21;;;;;;;18.08;9.35;;;;;;;;;;4987811;28;20492;-36
2022/01/26 11:26:49;;;;;;;17.55;10.98;;;;;;;;;;4982953;28;20631;-38
2022/01/26 11:29:14;;;;;;;18.08;10.48;;;;;;;;;;4986831;28;20040;-34
2022/01/26 11:31:41;;;;;;;16.58;10.27;;;;;;;;;;4993426;28;20034;-31
2022/01/26 11:34:07;;;;;;;19.17;10.73;;;;;;;;;;5000800;28;20100;-35
2022/01/26 11:36:32;;;;;;;17.95;10.05;;;;;;;;;;5001646;28;20049;-36
2022/01/26 11:47:08;;;;;;;13.38;9.70;;;;;;;;;;5006601;28;20569;-34
2022/01/26 11:49:38;;;;;;;15.02;9.45;;;;;;;;;;5006711;28;20480;-40
2022/01/26 11:52:04;;;;;;;14.93;9.18;;;;;;;;;;5006432;28;20036;-38
2022/01/26 11:54:49;;;;;;;12.73;9.00;;;;;;;;;;5006326;28;20045;-36
2022/01/26 11:57:17;;;;;;;16.23;9.00;;;;;;;;;;5006130;28;20034;-39
2022/01/26 11:59:50;;;;;;;12.15;8.00;;;;;;;;;;5005016;28;20042;-35
2022/01/26 12:02:28;;;;;;;12.93;8.82;;;;;;;;;;5006515;28;20409;-39
2022/01/26 12:04:58;;;;;;;13.10;8.02;;;;;;;;;;4995657;28;20128;-36
2022/01/26 12:07:24;;;;;;;11.35;8.25;;;;;;;;;;5002256;28;20052;-37
2022/01/26 12:09:50;;;;;;;12.38;7.95;;;;;;;;;;5004477;28;20646;-36
2022/01/26 12:12:17;;;;;;;11.38;8.15;;;;;;;;;;4998070;28;20041;-38
2022/01/26 12:14:45;;;;;;;11.32;7.85;;;;;;;;;;4993174;28;20038;-36
2022/01/26 12:17:23;;;;;;;13.25;8.40;;;;;;;;;;4995145;28;20080;-40
2022/01/26 12:20:09;;;;;;;11.32;7.38;;;;;;;;;;5005366;28;20489;-38
2022/01/26 12:36:22;;;;;;;9.07;6.35;;;;;;;;;;5004169;28;20033;-35
2022/01/26 12:38:56;;;;;;;10.05;6.88;;;;;;;;;;5002850;28;20034;-36
2022/01/26 12:43:49;;;;;;;9.82;6.10;;;;;;;;;;5002813;28;20548;-33
2022/01/26 12:46:22;;;;;;;7.40;5.47;;;;;;;;;;5003527;28;20390;-37
2022/01/26 12:49:13;;;;;;;9.60;6.30;;;;;;;;;;5003848;28;20820;-38
2022/01/26 12:51:51;;;;;;;9.30;6.13;;;;;;;;;;5002477;28;20740;-34
2022/01/26 12:54:17;;;;;;;12.32;6.40;;;;;;;;;;5017607;28;20038;-37
2022/01/26 12:56:42;;;;;;;8.15;6.25;;;;;;;;;;5003922;28;20040;-35
2022/01/26 12:59:23;;;;;;;9.07;6.10;;;;;;;;;;5004582;28;20456;-37
2022/01/26 13:01:53;;;;;;;10.15;5.82;;;;;;;;;;4995560;28;20089;-33
2022/01/26 13:04:18;;;;;;;7.90;5.88;;;;;;;;;;5002744;28;20021;-37
2022/01/26 13:06:51;;;;;;;8.52;5.70;;;;;;;;;;4999445;28;20412;-37
2022/01/26 13:09:20;;;;;;;7.75;5.43;;;;;;;;;;4988462;28;20034;-36
2022/01/26 13:11:48;;;;;;;7.55;5.57;;;;;;;;;;4999577;28;20037;-39
2022/01/26 13:14:21;;;;;;;9.52;4.95;;;;;;;;;;5008598;28;20025;-39
2022/01/26 13:17:09;;;;;;;;;;;;;;;;;;5001691;28;20526;-37
2022/01/26 13:27:22;;;;;;;13.32;5.38;;;;;;;;;;5005617;28;20026;-38
2022/01/26 13:48:18;;;;;;;18.20;9.35;;;;;;;;;;5003224;28;20159;-36
2022/01/26 13:53:19;;;;;;;10.65;6.20;;;;;;;;;;5004006;28;20065;-34
2022/01/26 13:58:49;;;;;;;10.73;5.68;;;;;;;;;;5003045;28;20104;-34
2022/01/26 14:01:20;;;;;;;10.82;5.60;;;;;;;;;;5004240;28;20625;-36
2022/01/26 14:03:49;;;;;;;7.82;5.32;;;;;;;;;;5003513;28;20061;-36
2022/01/26 14:06:14;;;;;;;10.40;6.00;;;;;;;;;;5003825;28;20416;-36
2022/01/26 14:08:41;;;;;;;21.75;8.75;;;;;;;;;;4992630;28;20038;-31
2022/01/26 14:11:07;;;;;;;14.98;7.00;;;;;;;;;;4984523;28;20117;-34
2022/01/26 14:13:35;;;;;;;13.70;6.50;;;;;;;;;;4984367;28;20046;-38
2022/01/26 14:16:00;;;;;;;17.27;7.68;;;;;;;;;;4984552;28;20046;-38
2022/01/26 14:20:55;;;;;;;17.58;7.10;;;;;;;;;;4984195;28;20785;-36
2022/01/26 14:23:44;;;;;;;15.77;7.80;;;;;;;;;;4984043;28;20042;-35
2022/01/26 14:26:13;;;;;;;18.35;7.88;;;;;;;;;;4984185;28;20220;-32
2022/01/26 14:28:38;;;;;;;19.70;8.20;;;;;;;;;;4984108;28;20157;-38
2022/01/26 14:31:22;;;;;;;19.15;8.77;;;;;;;;;;4983858;28;20755;-35
2022/01/26 14:37:03;;;;;;;21.15;9.10;;;;;;;;;;4983867;28;20053;-37
2022/01/26 15:09:21;;;;;;;20.77;8.70;;;;;;;;;;5002811;28;20041;-34
2022/01/26 15:33:23;;;;;;;21.98;8.88;;;;;;;;;;5001813;28;20605;-35
2022/01/26 15:49:49;;;;;;;16.55;8.07;;;;;;;;;;5002484;28;20103;-38
2022/01/26 15:57:48;;;;;;;12.77;7.03;;;;;;;;;;5002455;28;20048;-31
2022/01/26 16:27:21;;;;;;;11.43;6.82;;;;;;;;;;5003240;28;20044;-37
2022/01/26 16:35:57;;;;;;;20.27;12.10;;;;;;;;;;4997213;28;20076;-30
2022/01/26 17:24:49;;;;;;;12.80;6.40;;;;;;;;;;5003485;28;20034;-34
2022/01/26 18:16:18;;;;;;;22.88;13.48;;;;;;;;;;5003522;28;20040;-34
2022/01/26 18:26:47;;;;;;;22.05;11.25;;;;;;;;;;5003228;28;20100;-31
2022/01/26 18:32:44;;;;;;;21.17;10.82;;;;;;;;;;5002672;28;20069;-37
2022/01/26 18:38:48;;;;;;;21.80;9.90;;;;;;;;;;5002258;28;20123;-36
2022/01/26 18:51:10;;;;;;;13.05;7.13;;;;;;;;;;4982794;28;20114;-35
2022/01/26 18:53:35;;;;;;;11.93;7.25;;;;;;;;;;4983024;28;20030;-36
2022/01/26 18:56:01;;;;;;;17.23;6.45;;;;;;;;;;4983422;28;20122;-37
2022/01/26 18:58:26;;;;;;;14.05;7.32;;;;;;;;;;4983260;28;20117;-37
2022/01/26 19:00:52;;;;;;;14.70;7.40;;;;;;;;;;4983137;28;20065;-32
2022/01/26 19:03:18;;;;;;;15.38;6.63;;;;;;;;;;4982892;28;20038;-37
2022/01/26 19:05:44;;;;;;;9.57;6.22;;;;;;;;;;4983216;28;20121;-34
2022/01/26 19:08:10;;;;;;;12.68;7.00;;;;;;;;;;4982647;28;20548;-37
2022/01/26 19:10:36;;;;;;;14.63;7.07;;;;;;;;;;4982779;28;20026;-31
2022/01/26 19:13:01;;;;;;;12.05;6.72;;;;;;;;;;4982818;28;20115;-35
2022/01/26 19:15:30;;;;;;;11.35;6.20;;;;;;;;;;5000185;28;20559;-34
2022/01/26 19:18:09;;;;;;;14.75;6.82;;;;;;;;;;5004905;28;20402;-32
2022/01/26 19:26:13;;;;;;;16.50;8.00;;;;;;;;;;4968814;28;19922;-36
2022/01/26 19:28:44;;;;;;;18.65;7.70;;;;;;;;;;4977951;28;20043;-36
2022/01/26 19:43:20;;;;;;;13.15;7.57;;;;;;;;;;4993748;28;20104;-33
2022/01/26 19:52:30;;;;;;;18.83;7.45;;;;;;;;;;4997523;28;20129;-36
2022/01/26 19:54:55;;;;;;;14.48;6.70;;;;;;;;;;4995192;28;20132;-37
2022/01/26 19:57:21;;;;;;;14.35;7.15;;;;;;;;;;5001627;28;20061;-34
2022/01/26 19:59:46;;;;;;;10.20;6.70;;;;;;;;;;5001955;28;20080;-35
2022/01/26 20:02:12;;;;;;;8.50;6.43;;;;;;;;;;5003095;28;20420;-37
2022/01/26 20:04:37;;;;;;;10.55;6.40;;;;;;;;;;5016460;28;20038;-33
2022/01/26 20:07:09;;;;;;;14.50;6.68;;;;;;;;;;4998955;28;20410;-35
2022/01/26 20:09:42;;;;;;;11.18;6.45;;;;;;;;;;4996687;28;20108;-37
2022/01/26 20:12:17;;;;;;;10.48;6.43;;;;;;;;;;4998917;28;20508;-37
2022/01/26 20:14:43;;;;;;;13.50;6.85;;;;;;;;;;4994806;28;20026;-36
2022/01/26 20:17:08;;;;;;;12.85;7.13;;;;;;;;;;4999707;28;20026;-33
2022/01/26 20:19:35;;;;;;;13.18;7.68;;;;;;;;;;5005559;28;20851;-32
2022/01/26 20:22:01;;;;;;;14.55;6.80;;;;;;;;;;5006011;28;20129;-31
2022/01/26 20:24:27;;;;;;;15.70;7.05;;;;;;;;;;5005781;28;20130;-34
2022/01/26 20:26:53;;;;;;;16.13;6.63;;;;;;;;;;5005644;28;20128;-37
2022/01/26 20:29:22;;;;;;;16.40;7.53;;;;;;;;;;5005487;28;20030;-37
2022/01/26 20:31:48;;;;;;;16.60;7.10;;;;;;;;;;5001302;28;20534;-34
2022/01/26 20:34:14;;;;;;;15.40;7.03;;;;;;;;;;5007933;28;20125;-35
2022/01/26 20:36:41;;;;;;;14.52;6.75;;;;;;;;;;5005801;28;20030;-36
2022/01/26 20:39:07;;;;;;;22.08;7.53;;;;;;;;;;4988205;28;20072;-37
2022/01/26 20:41:32;;;;;;;13.93;7.18;;;;;;;;;;4988187;28;20097;-36
2022/01/26 20:43:58;;;;;;;15.38;6.90;;;;;;;;;;4988226;28;20026;-35
2022/01/26 20:46:23;;;;;;;15.27;6.85;;;;;;;;;;4988007;28;20033;-39
2022/01/26 20:48:49;;;;;;;12.82;6.90;;;;;;;;;;4988424;28;20054;-34
2022/01/26 20:51:14;;;;;;;10.75;6.10;;;;;;;;;;4988236;28;20697;-38
2022/01/26 20:53:41;;;;;;;12.65;6.22;;;;;;;;;;4988294;28;20034;-35
2022/01/26 20:56:06;;;;;;;13.93;7.00;;;;;;;;;;4987532;28;20031;-38
2022/01/26 20:58:32;;;;;;;10.98;6.38;;;;;;;;;;4986472;28;20089;-35
2022/01/26 21:00:57;;;;;;;13.90;6.53;;;;;;;;;;4988296;28;20038;-37
2022/01/26 21:03:23;;;;;;;13.80;6.90;;;;;;;;;;4988033;28;20475;-38
2022/01/26 21:05:49;;;;;;;11.18;6.35;;;;;;;;;;4987932;28;20548;-37
2022/01/26 21:08:16;;;;;;;12.60;6.85;;;;;;;;;;4993637;28;20516;-30
2022/01/26 21:10:42;;;;;;;10.73;6.32;;;;;;;;;;4997415;28;20088;-33
2022/01/26 21:13:08;;;;;;;10.82;6.18;;;;;;;;;;4997322;28;20034;-36
2022/01/26 21:15:33;;;;;;;11.23;6.40;;;;;;;;;;4995001;28;20114;-37
2022/01/26 21:17:59;;;;;;;12.57;6.53;;;;;;;;;;4992080;28;20033;-38
2022/01/26 21:20:24;;;;;;;11.63;6.45;;;;;;;;;;4997444;28;20168;-35
2022/01/26 21:22:52;;;;;;;10.77;6.70;;;;;;;;;;5006367;28;20083;-39
2022/01/26 21:25:18;;;;;;;9.85;6.20;;;;;;;;;;5006962;28;20022;-34
2022/01/26 21:27:44;;;;;;;9.80;6.15;;;;;;;;;;5006518;28;20025;-38
2022/01/26 21:30:09;;;;;;;8.55;6.00;;;;;;;;;;5006854;28;20030;-34
2022/01/26 21:32:35;;;;;;;12.32;6.90;;;;;;;;;;5006448;28;20030;-38
2022/01/26 21:35:00;;;;;;;9.80;6.18;;;;;;;;;;5005878;28;20517;-38
2022/01/26 21:37:26;;;;;;;16.60;7.13;;;;;;;;;;5004642;28;20107;-35
2022/01/26 21:39:51;;;;;;;8.68;5.72;;;;;;;;;;5006489;28;20038;-33